createdAt,value
2019-06-27T00:01:18.506Z,1.50
2019-06-27T00:03:48.516Z,1.90
2019-06-27T00:06:18.591Z,2.10
2019-06-27T00:08:48.595Z,1.70
2019-06-27T00:11:18.668Z,3.05
2019-06-27T00:13:48.676Z,2.60
2019-06-27T00:16:18.654Z,1.72
2019-06-27T00:18:48.681Z,1.50
2019-06-27T00:21:18.765Z,1.80
2019-06-27T00:23:48.837Z,2.10
2019-06-27T00:26:18.898Z,1.30
2019-06-27T00:28:48.901Z,1.55
2019-06-27T00:31:18.878Z,1.85
2019-06-27T00:33:48.931Z,1.30
2019-06-27T00:36:18.941Z,1.72
2019-06-27T00:38:48.941Z,2.47
2019-06-27T00:41:18.915Z,1.30
2019-06-27T00:43:48.935Z,1.98
2019-06-27T00:46:18.933Z,1.47
2019-06-27T00:48:48.970Z,1.57
2019-06-27T00:51:18.981Z,1.55
2019-06-27T00:53:49.001Z,1.70
2019-06-27T00:56:19.016Z,1.50
2019-06-27T00:58:49.020Z,1.80
2019-06-27T01:01:19.107Z,1.70
2019-06-27T01:03:49.102Z,1.30
2019-06-27T01:06:19.131Z,1.75
2019-06-27T01:08:49.115Z,2.30
2019-06-27T01:11:19.133Z,1.95
2019-06-27T01:13:49.114Z,1.67
2019-06-27T01:16:19.180Z,1.60
2019-06-27T01:18:49.159Z,1.62
2019-06-27T01:21:19.194Z,1.60
2019-06-27T01:23:49.197Z,1.80
2019-06-27T01:26:19.214Z,1.95
2019-06-27T01:28:49.216Z,1.95
2019-06-27T01:31:19.313Z,1.65
2019-06-27T01:33:49.312Z,2.30
2019-06-27T01:36:19.449Z,1.62
2019-06-27T01:38:49.546Z,2.85
2019-06-27T01:41:19.664Z,1.67
2019-06-27T01:43:52.417Z,1.82
2019-06-27T01:46:21.424Z,2.10
2019-06-27T01:48:51.708Z,1.90
2019-06-27T01:51:21.725Z,2.27
2019-06-27T01:53:51.725Z,1.67
2019-06-27T01:56:21.752Z,1.80
2019-06-27T01:58:51.827Z,1.62
2019-06-27T02:01:21.990Z,3.37
2019-06-27T02:03:52.125Z,2.30
2019-06-27T02:06:22.186Z,2.17
2019-06-27T02:08:52.464Z,1.87
2019-06-27T02:11:22.544Z,2.20
2019-06-27T02:13:52.604Z,1.90
2019-06-27T02:16:22.816Z,1.55
2019-06-27T02:18:52.818Z,2.50
2019-06-27T02:21:22.840Z,2.12
2019-06-27T02:23:52.866Z,1.85
2019-06-27T02:26:22.952Z,1.50
2019-06-27T02:28:52.945Z,1.85
2019-06-27T02:31:23.025Z,1.98
2019-06-27T02:33:53.008Z,2.35
2019-06-27T02:36:23.254Z,1.72
2019-06-27T02:38:53.396Z,1.62
2019-06-27T02:41:23.416Z,1.85
2019-06-27T02:43:53.441Z,1.92
2019-06-27T02:46:23.434Z,1.60
2019-06-27T02:48:53.442Z,1.98
2019-06-27T02:51:23.427Z,1.70
2019-06-27T02:53:53.434Z,1.95
2019-06-27T02:56:23.465Z,1.77
2019-06-27T02:58:53.463Z,1.67
2019-06-27T03:01:23.529Z,1.62
2019-06-27T03:03:53.540Z,2.22
2019-06-27T03:06:23.598Z,2.00
2019-06-27T03:08:53.589Z,1.90
2019-06-27T03:11:23.615Z,1.60
2019-06-27T03:13:53.663Z,2.10
2019-06-27T03:16:23.658Z,2.37
2019-06-27T03:18:53.681Z,1.82
2019-06-27T03:21:23.709Z,1.57
2019-06-27T03:23:53.709Z,1.50
2019-06-27T03:26:23.777Z,1.82
2019-06-27T03:28:54.261Z,2.45
2019-06-27T03:31:24.361Z,1.80
2019-06-27T03:33:54.385Z,1.90
2019-06-27T03:36:24.418Z,1.87
2019-06-27T03:38:54.434Z,2.37
2019-06-27T03:41:24.459Z,1.87
2019-06-27T03:43:54.489Z,2.25
2019-06-27T03:46:24.594Z,2.85
2019-06-27T03:48:54.597Z,2.00
2019-06-27T03:51:24.574Z,2.52
2019-06-27T03:53:54.567Z,2.17
2019-06-27T03:56:24.566Z,2.83
2019-06-27T03:59:11.703Z,1.85
2019-06-27T04:01:26.326Z,2.00
2019-06-27T04:03:56.337Z,1.92
2019-06-27T04:06:26.314Z,1.92
2019-06-27T04:08:56.346Z,1.60
2019-06-27T04:11:26.354Z,1.90
2019-06-27T04:13:56.368Z,1.87
2019-06-27T04:16:26.365Z,1.60
2019-06-27T04:18:56.377Z,2.80
2019-06-27T04:21:26.360Z,1.77
2019-06-27T04:23:56.369Z,1.90
2019-06-27T04:26:26.380Z,1.98
2019-06-27T04:28:56.397Z,2.52
2019-06-27T04:31:26.381Z,1.85
2019-06-27T04:33:56.430Z,2.25
2019-06-27T04:36:26.400Z,1.82
2019-06-27T04:38:56.428Z,1.82
2019-06-27T04:41:26.414Z,1.65
2019-06-27T04:43:56.414Z,2.05
2019-06-27T04:46:26.427Z,1.80
2019-06-27T04:48:56.452Z,2.52
2019-06-27T04:51:26.451Z,1.85
2019-06-27T04:53:56.474Z,2.02
2019-06-27T04:56:26.487Z,1.77
2019-06-27T04:58:56.501Z,1.90
2019-06-27T05:01:26.519Z,2.17
2019-06-27T05:03:56.539Z,1.65
2019-06-27T05:06:26.576Z,1.87
2019-06-27T05:08:56.621Z,2.58
2019-06-27T05:11:26.601Z,1.98
2019-06-27T05:13:56.623Z,1.80
2019-06-27T05:16:26.584Z,1.92
2019-06-27T05:18:56.573Z,1.92
2019-06-27T05:21:26.559Z,1.50
2019-06-27T05:23:56.663Z,1.90
2019-06-27T05:26:26.667Z,2.77
2019-06-27T05:28:56.707Z,2.12
2019-06-27T05:31:26.687Z,2.00
2019-06-27T05:33:56.691Z,1.77
2019-06-27T05:36:26.678Z,1.80
2019-06-27T05:38:56.694Z,2.20
2019-06-27T05:41:26.697Z,2.20
2019-06-27T05:43:56.721Z,2.37
2019-06-27T05:46:26.677Z,1.95
2019-06-27T05:48:56.707Z,1.85
2019-06-27T05:51:26.735Z,1.95
2019-06-27T05:53:56.715Z,1.80
2019-06-27T05:56:26.700Z,2.00
2019-06-27T05:58:56.694Z,2.47
2019-06-27T06:01:26.701Z,1.67
2019-06-27T06:03:56.688Z,2.00
2019-06-27T06:06:26.697Z,2.37
2019-06-27T06:08:56.704Z,2.30
2019-06-27T06:11:26.721Z,2.42
2019-06-27T06:13:56.717Z,2.90
2019-06-27T06:16:26.727Z,2.40
2019-06-27T06:18:56.689Z,2.30
2019-06-27T06:21:26.783Z,2.40
2019-06-27T06:23:56.769Z,2.60
2019-06-27T06:26:26.768Z,2.77
2019-06-27T06:28:56.768Z,2.65
2019-06-27T06:31:26.785Z,1.80
2019-06-27T06:33:56.780Z,1.95
2019-06-27T06:36:26.815Z,2.40
2019-06-27T06:38:56.795Z,2.22
2019-06-27T06:41:26.803Z,2.05
2019-06-27T06:43:56.797Z,2.10
2019-06-27T06:46:26.837Z,2.25
2019-06-27T06:48:56.794Z,2.17
2019-06-27T06:51:26.827Z,2.10
2019-06-27T06:53:56.828Z,3.12
2019-06-27T06:56:26.830Z,2.87
2019-06-27T06:58:56.838Z,2.40
2019-06-27T07:01:26.912Z,2.10
2019-06-27T07:03:56.956Z,2.30
2019-06-27T07:06:27.100Z,1.90
2019-06-27T07:08:57.140Z,1.80
2019-06-27T07:11:27.188Z,2.40
2019-06-27T07:13:57.182Z,2.47
2019-06-27T07:16:27.376Z,1.75
2019-06-27T07:18:57.402Z,2.50
2019-06-27T07:21:27.474Z,3.00
2019-06-27T07:23:57.490Z,3.05
2019-06-27T07:26:27.538Z,3.30
2019-06-27T07:28:57.545Z,2.30
2019-06-27T07:31:27.643Z,2.60
2019-06-27T07:33:57.632Z,2.52
2019-06-27T07:36:27.660Z,2.15
2019-06-27T07:38:57.663Z,2.30
2019-06-27T07:41:27.677Z,2.98
2019-06-27T07:43:57.716Z,2.33
2019-06-27T07:46:27.762Z,2.08
2019-06-27T07:48:57.757Z,2.60
2019-06-27T07:51:27.848Z,1.95
2019-06-27T07:53:57.847Z,1.90
2019-06-27T07:56:27.882Z,2.27
2019-06-27T07:58:57.934Z,2.45
2019-06-27T08:01:34.891Z,1.60
2019-06-27T08:03:59.703Z,2.35
2019-06-27T08:06:29.725Z,1.98
2019-06-27T08:08:59.780Z,2.00
2019-06-27T08:11:29.762Z,1.77
2019-06-27T08:13:59.811Z,1.80
2019-06-27T08:16:29.814Z,2.17
2019-06-27T08:18:59.851Z,2.05
2019-06-27T08:21:29.908Z,1.90
2019-06-27T08:23:59.940Z,1.92
2019-06-27T08:26:29.975Z,2.15
2019-06-27T08:29:00.016Z,2.05
2019-06-27T08:31:30.001Z,1.82
2019-06-27T08:34:00.077Z,2.05
2019-06-27T08:36:30.049Z,2.02
2019-06-27T08:39:00.241Z,1.70
2019-06-27T08:41:30.265Z,1.82
2019-06-27T08:44:00.379Z,1.70
2019-06-27T08:46:30.472Z,2.22
2019-06-27T08:49:00.577Z,1.55
2019-06-27T08:51:30.671Z,2.08
2019-06-27T08:54:00.779Z,1.82
2019-06-27T08:56:31.297Z,1.52
2019-06-27T08:59:01.329Z,2.00
2019-06-27T09:01:31.449Z,1.50
2019-06-27T09:04:01.986Z,1.62
2019-06-27T09:06:31.995Z,1.20
2019-06-27T09:09:02.043Z,1.52
2019-06-27T09:11:35.542Z,1.30
2019-06-27T09:14:03.946Z,1.37
2019-06-27T09:16:33.929Z,1.20
2019-06-27T09:19:03.963Z,1.40
2019-06-27T09:21:34.021Z,1.20
2019-06-27T09:24:04.110Z,1.50
2019-06-27T09:26:34.097Z,1.77
2019-06-27T09:29:04.139Z,1.55
2019-06-27T09:31:34.210Z,1.75
2019-06-27T09:34:04.329Z,2.12
2019-06-27T09:36:34.324Z,1.80
2019-06-27T09:39:05.197Z,1.67
2019-06-27T09:41:35.185Z,1.60
2019-06-27T09:44:05.297Z,1.50
2019-06-27T09:46:35.324Z,1.50
2019-06-27T09:49:05.330Z,1.45
2019-06-27T09:51:35.341Z,1.40
2019-06-27T09:54:05.418Z,1.40
2019-06-27T09:56:35.415Z,1.15
2019-06-27T09:59:05.389Z,1.30
2019-06-27T10:01:35.433Z,1.42
2019-06-27T10:04:05.497Z,1.40
2019-06-27T10:06:35.526Z,1.20
2019-06-27T10:09:06.500Z,1.45
2019-06-27T10:11:36.540Z,1.22
2019-06-27T10:14:06.543Z,1.02
2019-06-27T10:16:36.621Z,0.90
2019-06-27T10:19:06.629Z,1.22
2019-06-27T10:21:36.701Z,1.00
2019-06-27T10:24:06.752Z,1.10
2019-06-27T10:26:36.744Z,1.07
2019-06-27T10:29:06.841Z,0.88
2019-06-27T10:31:36.883Z,1.20
2019-06-27T10:34:06.868Z,1.02
2019-06-27T10:36:38.517Z,0.85
2019-06-27T10:39:08.585Z,1.02
2019-06-27T10:41:38.638Z,0.90
2019-06-27T10:44:08.616Z,1.15
2019-06-27T10:46:38.670Z,1.20
2019-06-27T10:49:08.688Z,0.95
2019-06-27T10:51:38.778Z,0.82
2019-06-27T10:54:08.994Z,0.90
2019-06-27T10:56:40.110Z,1.00
2019-06-27T10:59:10.367Z,0.95
2019-06-27T11:01:40.356Z,0.93
2019-06-27T11:04:10.420Z,0.80
2019-06-27T11:06:40.404Z,0.82
2019-06-27T11:09:10.430Z,1.05
2019-06-27T11:11:40.506Z,0.88
2019-06-27T11:14:10.552Z,0.85
2019-06-27T11:16:40.607Z,0.93
2019-06-27T11:19:10.624Z,1.05
2019-06-27T11:21:40.646Z,1.00
2019-06-27T11:24:10.626Z,0.80
2019-06-27T11:26:40.696Z,0.80
2019-06-27T11:29:10.726Z,0.90
2019-06-27T11:31:40.905Z,0.80
2019-06-27T11:34:10.998Z,0.90
2019-06-27T11:36:41.993Z,0.90
2019-06-27T11:39:12.051Z,0.95
2019-06-27T11:41:42.137Z,0.98
2019-06-27T11:44:12.292Z,1.10
2019-06-27T11:46:42.318Z,0.72
2019-06-27T11:49:12.520Z,0.78
2019-06-27T11:51:42.666Z,0.95
2019-06-27T11:54:12.782Z,1.17
2019-06-27T11:56:42.978Z,1.00
2019-06-27T11:59:13.139Z,1.00
2019-06-27T12:01:43.800Z,0.98
2019-06-27T12:04:13.932Z,0.90
2019-06-27T12:06:44.090Z,0.90
2019-06-27T12:09:14.221Z,1.07
2019-06-27T12:11:44.353Z,1.07
2019-06-27T12:14:14.469Z,1.37
2019-06-27T12:16:44.475Z,0.93
2019-06-27T12:19:14.563Z,1.07
2019-06-27T12:21:44.570Z,0.90
2019-06-27T12:24:14.639Z,0.82
2019-06-27T12:26:44.710Z,1.10
2019-06-27T12:29:14.811Z,0.90
2019-06-27T12:31:44.853Z,1.10
2019-06-27T12:34:14.946Z,1.10
2019-06-27T12:36:44.948Z,1.30
2019-06-27T12:39:15.034Z,1.10
2019-06-27T12:41:45.099Z,1.20
2019-06-27T12:44:15.185Z,1.10
2019-06-27T12:46:45.224Z,1.35
2019-06-27T12:49:15.307Z,1.00
2019-06-27T12:51:45.349Z,0.93
2019-06-27T12:54:15.469Z,0.95
2019-06-27T12:56:45.495Z,0.93
2019-06-27T12:59:15.745Z,0.80
2019-06-27T13:01:45.780Z,0.80
2019-06-27T13:04:23.425Z,1.00
2019-06-27T13:06:47.662Z,0.78
2019-06-27T13:09:17.715Z,1.00
2019-06-27T13:11:47.688Z,0.88
2019-06-27T13:14:17.833Z,1.32
2019-06-27T13:16:47.830Z,1.22
2019-06-27T13:19:17.950Z,1.00
2019-06-27T13:21:48.015Z,1.05
2019-06-27T13:24:18.045Z,1.47
2019-06-27T13:26:48.094Z,1.05
2019-06-27T13:29:16.990Z,0.90
2019-06-27T13:31:46.933Z,1.00
2019-06-27T13:34:17.002Z,1.00
2019-06-27T13:36:47.261Z,1.10
2019-06-27T13:39:17.249Z,1.12
2019-06-27T13:41:47.288Z,0.85
2019-06-27T13:44:17.272Z,0.88
2019-06-27T13:46:47.356Z,0.93
2019-06-27T13:49:17.378Z,0.80
2019-06-27T13:51:47.447Z,0.90
2019-06-27T13:54:17.482Z,0.55
2019-06-27T13:56:47.521Z,0.90
2019-06-27T13:59:17.527Z,0.93
2019-06-27T14:01:47.578Z,0.90
2019-06-27T14:04:17.765Z,0.90
2019-06-27T14:06:47.923Z,0.80
2019-06-27T14:09:23.513Z,1.10
2019-06-27T14:11:49.664Z,1.20
2019-06-27T14:14:19.706Z,1.10
2019-06-27T14:16:49.737Z,0.78
2019-06-27T14:19:19.785Z,0.93
2019-06-27T14:21:50.432Z,1.07
2019-06-27T14:24:20.451Z,1.20
2019-06-27T14:26:50.518Z,1.15
2019-06-27T14:29:20.556Z,0.78
2019-06-27T14:31:50.585Z,0.88
2019-06-27T14:34:20.666Z,1.00
2019-06-27T14:36:54.219Z,1.05
2019-06-27T14:39:22.520Z,1.00
2019-06-27T14:41:52.635Z,1.20
2019-06-27T14:44:22.701Z,1.00
2019-06-27T14:46:52.745Z,1.27
2019-06-27T14:49:22.851Z,0.90
2019-06-27T14:51:52.982Z,0.82
2019-06-27T14:54:23.537Z,1.10
2019-06-27T14:56:53.661Z,1.00
2019-06-27T14:59:23.690Z,1.20
2019-06-27T15:01:53.816Z,1.12
2019-06-27T15:04:23.896Z,1.02
2019-06-27T15:06:53.895Z,1.12
2019-06-27T15:09:23.943Z,1.00
2019-06-27T15:11:54.031Z,1.25
2019-06-27T15:14:24.534Z,0.98
2019-06-27T15:16:54.515Z,1.07
2019-06-27T15:19:24.568Z,1.60
2019-06-27T15:21:54.574Z,1.15
2019-06-27T15:24:24.712Z,1.10
2019-06-27T15:26:54.691Z,1.10
2019-06-27T15:29:24.743Z,1.40
2019-06-27T15:31:54.827Z,1.50
2019-06-27T15:34:24.874Z,1.50
2019-06-27T15:36:54.918Z,1.47
2019-06-27T15:39:24.914Z,1.22
2019-06-27T15:41:54.935Z,1.17
2019-06-27T15:44:25.045Z,1.35
2019-06-27T15:46:55.091Z,2.02
2019-06-27T15:49:25.212Z,1.30
2019-06-27T15:51:55.324Z,1.72
2019-06-27T15:54:25.366Z,1.40
2019-06-27T15:56:55.544Z,1.55
2019-06-27T15:59:25.618Z,1.35
2019-06-27T16:01:56.369Z,1.27
2019-06-27T16:04:32.771Z,1.00
2019-06-27T16:06:58.188Z,1.30
2019-06-27T16:09:28.323Z,1.30
2019-06-27T16:11:58.420Z,1.40
2019-06-27T16:14:28.552Z,1.50
2019-06-27T16:16:58.750Z,1.37
2019-06-27T16:19:28.773Z,1.37
2019-06-27T16:21:58.777Z,1.20
2019-06-27T16:24:28.812Z,1.62
2019-06-27T16:26:58.838Z,1.40
2019-06-27T16:29:28.863Z,1.50
2019-06-27T16:31:58.895Z,1.40
2019-06-27T16:34:29.284Z,1.45
2019-06-27T16:36:59.404Z,1.42
2019-06-27T16:39:29.481Z,1.50
2019-06-27T16:41:59.483Z,1.40
2019-06-27T16:44:29.530Z,2.33
2019-06-27T16:46:59.566Z,1.30
2019-06-27T16:49:29.690Z,1.52
2019-06-27T16:51:59.739Z,1.55
2019-06-27T16:54:29.797Z,1.85
2019-06-27T16:56:59.807Z,1.80
2019-06-27T16:59:29.948Z,1.40
2019-06-27T17:01:59.970Z,1.55
2019-06-27T17:04:30.041Z,1.65
2019-06-27T17:07:00.062Z,1.32
2019-06-27T17:09:30.171Z,1.60
2019-06-27T17:12:00.196Z,1.70
2019-06-27T17:14:30.235Z,1.65
2019-06-27T17:17:00.273Z,2.42
2019-06-27T17:19:30.310Z,1.75
2019-06-27T17:22:00.446Z,1.45
2019-06-27T17:24:30.454Z,1.70
2019-06-27T17:27:00.467Z,1.90
2019-06-27T17:29:30.461Z,1.90
2019-06-27T17:32:00.519Z,1.90
2019-06-27T17:34:30.505Z,1.47
2019-06-27T17:37:00.560Z,1.85
2019-06-27T17:39:30.668Z,1.75
2019-06-27T17:42:00.721Z,1.90
2019-06-27T17:44:30.831Z,1.70
2019-06-27T17:47:02.325Z,1.80
2019-06-27T17:49:32.402Z,1.87
2019-06-27T17:52:02.435Z,1.57
2019-06-27T17:54:32.454Z,1.77
2019-06-27T17:57:02.615Z,1.77
2019-06-27T17:59:32.749Z,2.10
2019-06-27T18:02:02.865Z,1.85
2019-06-27T18:04:33.006Z,1.82
2019-06-27T18:07:13.760Z,1.62
2019-06-27T18:09:37.228Z,1.62
2019-06-27T18:12:07.371Z,2.55
2019-06-27T18:14:37.577Z,2.10
2019-06-27T18:17:07.865Z,1.70
2019-06-27T18:19:39.081Z,1.70
2019-06-27T18:22:09.243Z,1.85
2019-06-27T18:24:41.650Z,1.50
2019-06-27T18:27:11.102Z,1.77
2019-06-27T18:29:41.175Z,1.70
2019-06-27T18:32:11.253Z,1.92
2019-06-27T18:34:41.318Z,1.50
2019-06-27T18:37:11.850Z,1.50
2019-06-27T18:39:41.909Z,2.25
2019-06-27T18:42:11.963Z,1.50
2019-06-27T18:44:42.102Z,1.55
2019-06-27T18:47:12.204Z,2.60
2019-06-27T18:49:42.249Z,1.90
2019-06-27T18:52:12.294Z,1.65
2019-06-27T18:54:42.392Z,1.60
2019-06-27T18:57:13.612Z,1.80
2019-06-27T18:59:43.658Z,1.60
2019-06-27T19:02:13.702Z,1.57
2019-06-27T19:04:43.750Z,1.47
2019-06-27T19:07:13.854Z,1.22
2019-06-27T19:09:43.906Z,1.70
2019-06-27T19:12:14.734Z,1.75
2019-06-27T19:14:44.711Z,1.95
2019-06-27T19:17:14.856Z,1.40
2019-06-27T19:19:47.659Z,1.70
2019-06-27T19:22:35.263Z,1.75
2019-06-27T19:25:09.968Z,2.17
2019-06-27T19:27:40.021Z,1.50
2019-06-27T19:30:10.023Z,1.60
2019-06-27T19:32:40.181Z,2.25
2019-06-27T19:35:10.293Z,1.85
2019-06-27T19:37:40.293Z,1.47
2019-06-27T19:40:10.452Z,1.55
2019-06-27T19:42:40.550Z,2.05
2019-06-27T19:45:10.723Z,1.75
2019-06-27T19:47:40.834Z,1.60
2019-06-27T19:50:11.677Z,2.08
2019-06-27T19:52:41.748Z,1.65
2019-06-27T19:55:11.926Z,1.27
2019-06-27T19:57:41.986Z,1.70
2019-06-27T20:00:12.579Z,1.70
2019-06-27T20:02:42.630Z,1.62
2019-06-27T20:05:12.868Z,1.60
2019-06-27T20:07:42.903Z,1.80
2019-06-27T20:10:14.030Z,1.80
2019-06-27T20:12:44.044Z,1.62
2019-06-27T20:15:14.119Z,2.22
2019-06-27T20:17:44.116Z,2.58
2019-06-27T20:20:14.242Z,1.55
2019-06-27T20:22:44.242Z,1.80
2019-06-27T20:25:14.373Z,2.00
2019-06-27T20:27:44.405Z,1.72
2019-06-27T20:30:14.586Z,1.85
2019-06-27T20:32:44.690Z,1.60
2019-06-27T20:35:14.936Z,1.92
2019-06-27T20:37:45.244Z,1.80
2019-06-27T20:40:15.942Z,2.40
2019-06-27T20:42:46.000Z,1.87
2019-06-27T20:45:16.047Z,1.70
2019-06-27T20:47:46.058Z,1.77
2019-06-27T20:50:16.336Z,1.90
2019-06-27T20:52:46.372Z,2.30
2019-06-27T20:55:16.506Z,2.08
2019-06-27T20:57:46.515Z,1.90
2019-06-27T21:00:16.935Z,2.15
2019-06-27T21:02:47.120Z,1.67
2019-06-27T21:05:17.169Z,1.72
2019-06-27T21:07:47.205Z,1.95
2019-06-27T21:10:18.414Z,1.82
2019-06-27T21:12:48.461Z,1.92
2019-06-27T21:15:18.536Z,1.90
2019-06-27T21:17:48.560Z,1.82
2019-06-27T21:20:18.643Z,2.55
2019-06-27T21:22:48.652Z,1.50
2019-06-27T21:25:19.049Z,2.17
2019-06-27T21:27:49.132Z,1.52
2019-06-27T21:30:19.314Z,1.62
2019-06-27T21:32:49.296Z,1.80
2019-06-27T21:35:19.466Z,2.00
2019-06-27T21:37:49.451Z,2.02
2019-06-27T21:40:20.034Z,1.80
2019-06-27T21:42:50.160Z,1.80
2019-06-27T21:45:20.403Z,1.72
2019-06-27T21:47:50.518Z,2.00
2019-06-27T21:50:20.760Z,2.10
2019-06-27T21:52:50.800Z,2.15
2019-06-27T21:55:21.162Z,2.00
2019-06-27T21:57:51.276Z,1.77
2019-06-27T22:00:22.747Z,2.00
2019-06-27T22:02:52.880Z,2.33
2019-06-27T22:05:23.091Z,2.45
2019-06-27T22:07:53.697Z,2.92
2019-06-27T22:10:24.100Z,1.80
2019-06-27T22:12:54.153Z,2.00
2019-06-27T22:15:24.190Z,1.90
2019-06-27T22:17:54.196Z,2.50
2019-06-27T22:20:24.349Z,1.95
2019-06-27T22:22:54.538Z,2.58
2019-06-27T22:25:39.358Z,1.87
2019-06-27T22:27:56.462Z,2.15
2019-06-27T22:30:26.922Z,2.05
2019-06-27T22:32:57.092Z,2.20
2019-06-27T22:35:27.106Z,2.05
2019-06-27T22:38:15.202Z,2.20
2019-06-27T22:41:03.057Z,2.02
2019-06-27T22:43:50.729Z,1.95
2019-06-27T22:46:38.773Z,2.10
2019-06-27T22:49:08.424Z,1.85
2019-06-27T22:52:07.247Z,1.82
2019-06-27T22:54:38.311Z,1.70
2019-06-27T22:57:08.369Z,1.80
2019-06-27T22:59:38.485Z,1.90
2019-06-27T23:02:08.615Z,2.67
2019-06-27T23:04:38.772Z,1.85
2019-06-27T23:07:08.761Z,1.60
2019-06-27T23:09:38.804Z,2.33
2019-06-27T23:12:08.849Z,1.65
2019-06-27T23:14:38.872Z,1.80
2019-06-27T23:17:08.893Z,2.08
2019-06-27T23:19:38.853Z,1.50
2019-06-27T23:22:08.875Z,2.02
2019-06-27T23:24:38.871Z,1.90
2019-06-27T23:27:08.931Z,1.90
2019-06-27T23:29:38.977Z,2.70
2019-06-27T23:32:09.165Z,2.35
2019-06-27T23:34:39.194Z,2.50
2019-06-27T23:37:09.226Z,2.52
2019-06-27T23:39:39.234Z,2.72
2019-06-27T23:42:09.395Z,2.65
2019-06-27T23:44:39.368Z,2.12
2019-06-27T23:47:09.376Z,1.90
2019-06-27T23:49:39.514Z,2.95
2019-06-27T23:52:09.492Z,3.58
2019-06-27T23:54:39.500Z,3.30
2019-06-27T23:57:09.601Z,3.15
2019-06-27T23:59:39.635Z,2.52
